createdAt,value
2023-02-12T00:00:54.008Z,103419.66
2023-02-12T00:03:22.074Z,103416.03
2023-02-12T00:05:50.040Z,103417.06
2023-02-12T00:08:17.878Z,103414.34
2023-02-12T00:10:45.958Z,103412.56
2023-02-12T00:21:35.500Z,103409.38
2023-02-12T00:24:03.961Z,103406.53
2023-02-12T00:26:32.011Z,103407.47
2023-02-12T00:28:59.876Z,103404.69
2023-02-12T00:31:30.092Z,103407.38
2023-02-12T00:33:59.267Z,103398.31
2023-02-12T00:36:29.033Z,103410.03
2023-02-12T00:39:01.110Z,103407.28
2023-02-12T00:41:29.463Z,103408.28
2023-02-12T00:43:57.595Z,103414.53
2023-02-12T00:46:25.716Z,103410.91
2023-02-12T00:48:53.520Z,103415.44
2023-02-12T00:51:21.668Z,103413.59
2023-02-12T00:53:49.564Z,103411.75
2023-02-12T00:56:18.838Z,103403.53
2023-02-12T00:58:50.376Z,103403.63
2023-02-12T01:01:18.689Z,103404.47
2023-02-12T01:03:46.742Z,103398.06
2023-02-12T01:06:14.526Z,103408.09
2023-02-12T01:08:42.298Z,103404.47
2023-02-12T01:11:14.708Z,103404.41
2023-02-12T01:13:44.027Z,103400.91
2023-02-12T01:16:17.327Z,103403.53
2023-02-12T01:18:46.404Z,103396.28
2023-02-12T01:21:16.776Z,103399.00
2023-02-12T01:23:45.936Z,103402.69
2023-02-12T01:26:14.349Z,103393.56
2023-02-12T01:28:45.141Z,103393.56
2023-02-12T01:31:15.306Z,103385.38
2023-02-12T01:33:45.285Z,103389.00
2023-02-12T01:36:13.122Z,103399.00
2023-02-12T01:38:41.177Z,103390.84
2023-02-12T01:41:12.039Z,103397.19
2023-02-12T01:43:40.013Z,103395.41
2023-02-12T01:46:13.383Z,103393.56
2023-02-12T01:48:44.319Z,103386.31
2023-02-12T01:51:15.917Z,103386.38
2023-02-12T01:53:50.057Z,103388.22
2023-02-12T01:56:19.164Z,103387.41
2023-02-12T01:58:51.561Z,103380.13
2023-02-12T02:01:24.010Z,103380.16
2023-02-12T02:03:56.015Z,103379.28
2023-02-12T02:06:28.466Z,103382.94
2023-02-12T02:08:57.653Z,103390.22
2023-02-12T02:11:43.094Z,103384.72
2023-02-12T02:14:28.342Z,103387.56
2023-02-12T02:17:06.020Z,103383.84
2023-02-12T02:19:51.537Z,103386.59
2023-02-12T02:22:30.432Z,103380.25
2023-02-12T02:25:37.957Z,103378.59
2023-02-12T02:28:21.940Z,103389.56
2023-02-12T02:30:56.570Z,103385.06
2023-02-12T02:33:37.416Z,103379.59
2023-02-12T02:36:20.037Z,103377.88
2023-02-12T02:38:55.879Z,103378.00
2023-02-12T02:41:31.486Z,103371.66
2023-02-12T02:44:02.161Z,103375.31
2023-02-12T02:46:35.906Z,103376.31
2023-02-12T02:49:07.121Z,103375.47
2023-02-12T02:51:41.187Z,103377.31
2023-02-12T02:54:13.981Z,103373.78
2023-02-12T02:56:46.863Z,103372.03
2023-02-12T02:59:17.666Z,103384.78
2023-02-12T03:01:53.215Z,103378.59
2023-02-12T03:04:26.479Z,103379.41
2023-02-12T03:06:59.610Z,103384.88
2023-02-12T03:09:32.445Z,103379.59
2023-02-12T03:12:04.408Z,103370.56
2023-02-12T03:14:35.720Z,103369.72
2023-02-12T03:17:08.530Z,103379.69
2023-02-12T03:19:41.215Z,103379.72
2023-02-12T03:22:11.686Z,103374.38
2023-02-12T03:24:44.091Z,103378.94
2023-02-12T03:27:17.414Z,103372.69
2023-02-12T03:29:45.485Z,103372.69
2023-02-12T03:32:28.848Z,103381.69
2023-02-12T03:35:10.143Z,103376.28
2023-02-12T03:37:42.852Z,103377.22
2023-02-12T03:40:18.264Z,103376.38
2023-02-12T03:42:55.411Z,103371.81
2023-02-12T03:45:33.502Z,103372.69
2023-02-12T03:48:10.287Z,103368.13
2023-02-12T03:50:44.292Z,103374.47
2023-02-12T03:53:12.202Z,103373.63
2023-02-12T03:55:43.853Z,103376.25
2023-02-12T03:58:18.898Z,103382.59
2023-02-12T04:00:47.500Z,103373.56
2023-02-12T04:03:16.827Z,103370.78
2023-02-12T04:05:44.853Z,103366.28
2023-02-12T04:08:14.059Z,103368.97
2023-02-12T04:10:57.581Z,103376.16
2023-02-12T04:13:34.192Z,103377.09
2023-02-12T04:16:14.414Z,103373.44
2023-02-12T04:18:46.008Z,103376.06
2023-02-12T04:21:21.639Z,103381.47
2023-02-12T04:24:00.526Z,103387.81
2023-02-12T04:26:37.416Z,103390.44
2023-02-12T04:29:18.465Z,103400.41
2023-02-12T04:31:51.003Z,103394.09
2023-02-12T04:34:28.376Z,103404.06
2023-02-12T04:37:02.230Z,103400.41
2023-02-12T04:39:33.866Z,103401.34
2023-02-12T04:42:02.521Z,103407.75
2023-02-12T04:44:34.299Z,103410.47
2023-02-12T04:47:02.127Z,103410.50
2023-02-12T04:49:31.621Z,103407.75
2023-02-12T04:51:59.658Z,103415.03
2023-02-12T04:54:27.547Z,103415.91
2023-02-12T04:56:55.378Z,103411.41
2023-02-12T04:59:23.184Z,103411.34
2023-02-12T05:01:51.217Z,103405.94
2023-02-12T05:04:19.848Z,103411.41
2023-02-12T05:06:49.822Z,103405.06
2023-02-12T05:09:20.031Z,103416.81
2023-02-12T05:11:47.975Z,103411.41
2023-02-12T05:14:15.996Z,103415.91
2023-02-12T05:16:43.921Z,103410.50
2023-02-12T05:19:12.201Z,103410.47
2023-02-12T05:21:40.343Z,103413.25
2023-02-12T05:24:09.882Z,103421.38
2023-02-12T05:26:37.674Z,103424.13
2023-02-12T05:29:05.404Z,103424.13
2023-02-12T05:31:33.252Z,103421.47
2023-02-12T05:34:01.313Z,103419.66
2023-02-12T05:36:29.492Z,103422.41
2023-02-12T05:39:00.116Z,103425.13
2023-02-12T05:41:34.666Z,103426.97
2023-02-12T05:44:02.879Z,103419.81
2023-02-12T05:46:30.930Z,103429.81
2023-02-12T05:48:59.082Z,103428.91
2023-02-12T05:51:27.831Z,103433.44
2023-02-12T05:53:59.833Z,103433.44
2023-02-12T05:56:30.923Z,103438.94
2023-02-12T05:59:02.289Z,103439.78
2023-02-12T06:01:32.457Z,103438.88
2023-02-12T06:04:01.030Z,103433.47
2023-02-12T06:06:29.725Z,103438.94
2023-02-12T06:08:58.246Z,103441.69
2023-02-12T06:11:26.472Z,103440.81
2023-02-12T06:13:55.640Z,103433.56
2023-02-12T06:16:25.778Z,103439.00
2023-02-12T06:18:55.489Z,103439.06
2023-02-12T06:21:25.122Z,103435.47
2023-02-12T06:23:53.325Z,103439.06
2023-02-12T06:26:21.452Z,103433.63
2023-02-12T06:28:49.231Z,103435.47
2023-02-12T06:31:23.997Z,103439.91
2023-02-12T06:33:52.607Z,103438.19
2023-02-12T06:36:20.626Z,103437.22
2023-02-12T06:38:48.846Z,103437.31
2023-02-12T06:41:16.926Z,103439.06
2023-02-12T06:43:44.887Z,103442.75
2023-02-12T06:46:13.034Z,103446.38
2023-02-12T06:48:42.505Z,103436.41
2023-02-12T06:51:13.188Z,103449.09
2023-02-12T06:53:41.243Z,103458.22
2023-02-12T06:56:13.249Z,103462.72
2023-02-12T06:58:44.044Z,103458.25
2023-02-12T07:01:13.983Z,103461.88
2023-02-12T07:03:43.961Z,103461.88
2023-02-12T07:06:12.217Z,103459.19
2023-02-12T07:08:40.355Z,103457.38
2023-02-12T07:11:08.828Z,103465.53
2023-02-12T07:13:36.825Z,103468.28
2023-02-12T07:16:06.612Z,103473.72
2023-02-12T07:18:34.761Z,103478.28
2023-02-12T07:21:05.573Z,103478.22
2023-02-12T07:23:33.689Z,103478.22
2023-02-12T07:26:03.641Z,103471.84
2023-02-12T07:28:33.585Z,103470.00
2023-02-12T07:31:02.457Z,103467.19
2023-02-12T07:33:30.282Z,103468.19
2023-02-12T07:36:01.207Z,103473.50
2023-02-12T07:38:31.105Z,103475.28
2023-02-12T07:41:10.539Z,103481.59
2023-02-12T07:43:38.965Z,103487.09
2023-02-12T07:46:08.850Z,103480.66
2023-02-12T07:48:36.761Z,103482.47
2023-02-12T07:51:06.670Z,103488.75
2023-02-12T07:53:36.083Z,103483.25
2023-02-12T07:56:12.380Z,103485.88
2023-02-12T07:58:42.083Z,103481.38
2023-02-12T08:01:14.812Z,103487.63
2023-02-12T08:03:43.157Z,103495.91
2023-02-12T08:06:12.749Z,103494.88
2023-02-12T08:08:42.011Z,103491.16
2023-02-12T08:11:11.010Z,103493.00
2023-02-12T08:13:39.520Z,103497.50
2023-02-12T08:16:09.268Z,103499.31
2023-02-12T08:18:37.314Z,103501.13
2023-02-12T08:21:06.290Z,103501.13
2023-02-12T08:23:34.893Z,103495.63
2023-02-12T08:26:09.317Z,103493.75
2023-02-12T08:28:38.255Z,103497.44
2023-02-12T08:31:09.490Z,103499.16
2023-02-12T08:33:37.752Z,103505.50
2023-02-12T08:36:07.600Z,103502.72
2023-02-12T08:38:35.495Z,103509.06
2023-02-12T08:41:03.806Z,103514.41
2023-02-12T08:43:33.277Z,103517.03
2023-02-12T08:46:05.706Z,103512.41
2023-02-12T08:48:34.341Z,103523.41
2023-02-12T08:51:10.476Z,103521.38
2023-02-12T08:53:39.413Z,103520.50
2023-02-12T08:56:08.367Z,103515.94
2023-02-12T08:58:38.811Z,103513.13
2023-02-12T09:01:11.109Z,103507.59
2023-02-12T09:03:52.076Z,103519.38
2023-02-12T09:06:22.541Z,103513.88
2023-02-12T09:08:50.930Z,103521.06
2023-02-12T09:11:23.867Z,103521.03
2023-02-12T09:13:53.230Z,103520.97
2023-02-12T09:16:21.166Z,103523.91
2023-02-12T09:18:49.032Z,103520.00
2023-02-12T09:21:17.606Z,103525.38
2023-02-12T09:23:45.680Z,103530.78
2023-02-12T09:26:15.785Z,103530.66
2023-02-12T09:28:44.432Z,103524.25
2023-02-12T09:31:15.477Z,103526.91
2023-02-12T09:33:43.720Z,103528.72
2023-02-12T09:36:14.243Z,103528.56
2023-02-12T09:38:42.830Z,103524.91
2023-02-12T09:41:30.760Z,103524.81
2023-02-12T09:44:17.050Z,103525.66
2023-02-12T09:47:08.664Z,103529.16
2023-02-12T09:49:51.016Z,103535.41
2023-02-12T09:52:21.444Z,103531.78
2023-02-12T09:54:50.774Z,103538.91
2023-02-12T09:57:23.440Z,103537.00
2023-02-12T09:59:55.374Z,103537.91
2023-02-12T10:02:25.295Z,103540.59
2023-02-12T10:05:01.104Z,103535.88
2023-02-12T10:07:55.140Z,103536.72
2023-02-12T10:10:35.551Z,103536.69
2023-02-12T10:13:06.491Z,103539.31
2023-02-12T10:15:46.121Z,103536.44
2023-02-12T10:18:37.641Z,103540.91
2023-02-12T10:21:19.558Z,103541.75
2023-02-12T10:24:01.684Z,103537.06
2023-02-12T10:26:32.010Z,103530.66
2023-02-12T10:29:11.882Z,103535.03
2023-02-12T10:31:43.916Z,103537.63
2023-02-12T10:34:21.193Z,103538.41
2023-02-12T10:36:52.690Z,103541.88
2023-02-12T10:39:26.108Z,103535.38
2023-02-12T10:41:59.811Z,103530.75
2023-02-12T10:44:27.995Z,103535.25
2023-02-12T10:46:56.415Z,103529.63
2023-02-12T10:49:25.841Z,103531.34
2023-02-12T10:52:03.434Z,103528.38
2023-02-12T10:54:40.936Z,103531.88
2023-02-12T10:57:24.978Z,103530.97
2023-02-12T10:59:54.552Z,103527.19
2023-02-12T11:02:26.784Z,103524.25
2023-02-12T11:04:58.020Z,103519.69
2023-02-12T11:07:27.420Z,103518.63
2023-02-12T11:09:57.357Z,103515.75
2023-02-12T11:12:33.759Z,103512.94
2023-02-12T11:15:04.007Z,103517.38
2023-02-12T11:17:36.219Z,103510.81
2023-02-12T11:20:26.019Z,103508.16
2023-02-12T11:22:56.308Z,103507.03
2023-02-12T11:25:25.823Z,103506.91
2023-02-12T11:28:14.133Z,103506.69
2023-02-12T11:30:54.126Z,103504.78
2023-02-12T11:33:26.668Z,103503.81
2023-02-12T11:35:59.548Z,103498.31
2023-02-12T11:38:32.570Z,103495.63
2023-02-12T11:41:04.716Z,103490.16
2023-02-12T11:43:37.213Z,103491.81
2023-02-12T11:46:08.407Z,103487.09
2023-02-12T11:48:39.098Z,103490.56
2023-02-12T11:51:18.535Z,103494.94
2023-02-12T11:53:51.164Z,103493.91
2023-02-12T11:56:20.185Z,103489.34
2023-02-12T11:58:49.054Z,103489.13
2023-02-12T12:01:20.744Z,103475.28
2023-02-12T12:04:00.263Z,103477.00
2023-02-12T12:06:37.225Z,103478.69
2023-02-12T12:09:13.078Z,103478.69
2023-02-12T12:11:50.709Z,103473.09
2023-02-12T12:14:25.552Z,103480.38
2023-02-12T12:17:15.102Z,103473.94
2023-02-12T12:19:54.956Z,103464.84
2023-02-12T12:22:41.601Z,103469.38
2023-02-12T12:25:18.733Z,103459.22
2023-02-12T12:28:08.227Z,103450.97
2023-02-12T12:31:00.205Z,103450.91
2023-02-12T12:33:38.621Z,103449.06
2023-02-12T12:36:41.876Z,103445.44
2023-02-12T12:39:19.617Z,103441.75
2023-02-12T12:42:12.756Z,103441.53
2023-02-12T12:44:53.944Z,103428.00
2023-02-12T12:47:32.877Z,103441.47
2023-02-12T12:50:21.885Z,103438.66
2023-02-12T12:53:06.016Z,103430.41
2023-02-12T12:56:03.401Z,103427.72
2023-02-12T12:58:41.606Z,103419.38
2023-02-12T13:01:33.609Z,103408.34
2023-02-12T13:04:23.086Z,103411.97
2023-02-12T13:07:01.873Z,103404.66
2023-02-12T13:09:55.550Z,103399.25
2023-02-12T13:12:43.281Z,103407.34
2023-02-12T13:15:22.600Z,103398.16
2023-02-12T13:17:56.455Z,103393.59
2023-02-12T13:20:32.740Z,103395.38
2023-02-12T13:23:04.002Z,103391.75
2023-02-12T13:25:39.441Z,103387.09
2023-02-12T13:28:16.278Z,103382.41
2023-02-12T13:30:49.478Z,103386.13
2023-02-12T13:33:22.299Z,103383.31
2023-02-12T13:35:53.842Z,103380.94
2023-02-12T13:38:25.685Z,103384.38
2023-02-12T13:41:01.078Z,103375.94
2023-02-12T13:43:43.948Z,103380.38
2023-02-12T13:46:20.343Z,103378.66
2023-02-12T13:48:58.689Z,103374.03
2023-02-12T13:51:37.042Z,103378.53
2023-02-12T13:54:33.146Z,103377.56
2023-02-12T13:57:03.545Z,103362.13
2023-02-12T13:59:47.384Z,103372.06
2023-02-12T14:02:50.379Z,103374.16
2023-02-12T14:05:32.103Z,103368.53
2023-02-12T14:08:05.332Z,103368.31
2023-02-12T14:10:37.211Z,103366.47
2023-02-12T14:13:17.228Z,103360.94
2023-02-12T14:15:51.591Z,103370.94
2023-02-12T14:18:31.960Z,103363.53
2023-02-12T14:21:45.501Z,103360.88
2023-02-12T14:24:52.674Z,103369.22
2023-02-12T14:27:26.203Z,103374.56
2023-02-12T14:30:25.703Z,103365.50
2023-02-12T14:33:26.872Z,103359.97
2023-02-12T14:36:14.622Z,103373.66
2023-02-12T14:39:01.568Z,103370.03
2023-02-12T14:41:37.523Z,103368.25
2023-02-12T14:44:41.242Z,103368.47
2023-02-12T14:47:37.728Z,103371.94
2023-02-12T14:50:16.350Z,103370.16
2023-02-12T14:52:50.109Z,103377.47
2023-02-12T14:55:25.797Z,103369.28
2023-02-12T14:58:02.494Z,103368.31
2023-02-12T15:00:35.560Z,103365.66
2023-02-12T15:03:17.095Z,103368.31
2023-02-12T15:05:51.910Z,103371.06
2023-02-12T15:08:27.369Z,103365.59
2023-02-12T15:11:00.438Z,103353.81
2023-02-12T15:13:34.580Z,103360.28
2023-02-12T15:16:10.208Z,103350.28
2023-02-12T15:18:51.615Z,103355.81
2023-02-12T15:21:24.118Z,103350.47
2023-02-12T15:24:02.525Z,103352.31
2023-02-12T15:26:33.502Z,103348.69
2023-02-12T15:29:03.644Z,103346.06
2023-02-12T15:31:36.079Z,103346.06
2023-02-12T15:34:05.870Z,103347.06
2023-02-12T15:36:38.073Z,103346.06
2023-02-12T15:39:09.603Z,103340.78
2023-02-12T15:41:40.526Z,103345.28
2023-02-12T15:44:27.479Z,103339.81
2023-02-12T15:46:57.132Z,103329.84
2023-02-12T15:49:29.782Z,103328.94
2023-02-12T15:52:01.104Z,103330.94
2023-02-12T15:54:29.382Z,103331.84
2023-02-12T15:56:57.256Z,103324.50
2023-02-12T15:59:29.295Z,103333.59
2023-02-12T16:02:00.536Z,103330.94
2023-02-12T16:04:32.605Z,103320.00
2023-02-12T16:07:03.160Z,103329.09
2023-02-12T16:09:33.822Z,103319.91
2023-02-12T16:12:04.382Z,103323.53
2023-02-12T16:14:43.540Z,103324.50
2023-02-12T16:17:22.546Z,103331.84
2023-02-12T16:19:59.092Z,103323.63
2023-02-12T16:22:34.380Z,103319.19
2023-02-12T16:25:03.419Z,103329.53
2023-02-12T16:27:33.173Z,103325.81
2023-02-12T16:30:04.408Z,103322.22
2023-02-12T16:32:38.070Z,103325.81
2023-02-12T16:35:24.173Z,103323.34
2023-02-12T16:37:56.479Z,103326.97
2023-02-12T16:40:36.924Z,103327.94
2023-02-12T16:43:26.717Z,103332.50
2023-02-12T16:46:06.037Z,103331.72
2023-02-12T16:48:40.170Z,103329.88
2023-02-12T16:51:20.899Z,103332.81
2023-02-12T16:53:53.753Z,103334.50
2023-02-12T16:56:23.451Z,103330.91
2023-02-12T16:58:55.077Z,103340.06
2023-02-12T17:01:25.478Z,103336.50
2023-02-12T17:03:54.285Z,103337.38
2023-02-12T17:06:23.765Z,103340.13
2023-02-12T17:08:53.301Z,103339.22
2023-02-12T17:11:23.054Z,103343.97
2023-02-12T17:13:53.044Z,103345.75
2023-02-12T17:16:30.358Z,103351.28
2023-02-12T17:18:58.948Z,103352.22
2023-02-12T17:21:29.651Z,103340.34
2023-02-12T17:23:58.954Z,103345.81
2023-02-12T17:26:26.887Z,103344.97
2023-02-12T17:28:54.801Z,103353.19
2023-02-12T17:31:23.902Z,103351.41
2023-02-12T17:33:51.918Z,103351.53
2023-02-12T17:36:19.929Z,103356.03
2023-02-12T17:38:47.827Z,103352.41
2023-02-12T17:41:17.094Z,103357.88
2023-02-12T17:43:45.153Z,103344.38
2023-02-12T17:46:14.501Z,103350.72
2023-02-12T17:48:42.357Z,103348.88
2023-02-12T17:51:11.505Z,103353.47
2023-02-12T17:53:39.624Z,103355.31
2023-02-12T17:56:11.539Z,103353.47
2023-02-12T17:58:41.186Z,103355.38
2023-02-12T18:01:10.776Z,103356.31
2023-02-12T18:03:38.986Z,103349.97
2023-02-12T18:06:07.971Z,103349.97
2023-02-12T18:08:35.818Z,103357.28
2023-02-12T18:11:06.495Z,103356.25
2023-02-12T18:13:34.766Z,103347.16
2023-02-12T18:16:07.453Z,103356.19
2023-02-12T18:18:35.636Z,103346.28
2023-02-12T18:21:07.908Z,103358.88
2023-02-12T18:23:35.969Z,103347.16
2023-02-12T18:26:07.388Z,103353.41
2023-02-12T18:28:35.721Z,103353.41
2023-02-12T18:31:06.811Z,103346.06
2023-02-12T18:33:35.057Z,103342.53
2023-02-12T18:36:05.107Z,103346.06
2023-02-12T18:38:33.241Z,103349.78
2023-02-12T18:41:01.447Z,103349.78
2023-02-12T18:43:29.312Z,103351.53
2023-02-12T18:45:57.134Z,103343.41
2023-02-12T18:48:26.489Z,103351.53
2023-02-12T18:50:55.474Z,103348.88
2023-02-12T18:53:23.477Z,103346.06
2023-02-12T18:55:52.316Z,103348.78
2023-02-12T18:58:20.255Z,103346.94
2023-02-12T19:00:48.189Z,103354.19
2023-02-12T19:03:16.286Z,103350.56
2023-02-12T19:05:45.628Z,103356.88
2023-02-12T19:08:13.805Z,103351.53
2023-02-12T19:10:42.660Z,103344.16
2023-02-12T19:13:11.239Z,103352.41
2023-02-12T19:15:40.106Z,103349.63
2023-02-12T19:18:08.458Z,103347.84
2023-02-12T19:20:36.377Z,103347.84
2023-02-12T19:23:05.628Z,103346.88
2023-02-12T19:25:39.669Z,103346.88
2023-02-12T19:28:07.544Z,103354.25
2023-02-12T19:30:37.245Z,103342.38
2023-02-12T19:33:05.149Z,103347.94
2023-02-12T19:35:32.976Z,103346.16
2023-02-12T19:38:01.625Z,103344.31
2023-02-12T19:40:32.107Z,103348.78
2023-02-12T19:42:59.949Z,103344.38
2023-02-12T19:45:27.757Z,103342.53
2023-02-12T19:47:55.808Z,103340.75
2023-02-12T19:50:23.855Z,103339.84
2023-02-12T19:52:51.956Z,103337.13
2023-02-12T19:55:19.843Z,103341.69
2023-02-12T19:57:49.685Z,103341.63
2023-02-12T20:00:17.792Z,103332.59
2023-02-12T20:02:45.636Z,103331.72
2023-02-12T20:05:13.516Z,103333.63
2023-02-12T20:07:41.414Z,103336.34
2023-02-12T20:10:09.650Z,103333.63
2023-02-12T20:12:40.096Z,103330.00
2023-02-12T20:15:10.136Z,103332.72
2023-02-12T20:17:37.888Z,103334.72
2023-02-12T20:20:06.799Z,103331.03
2023-02-12T20:22:34.706Z,103333.84
2023-02-12T20:25:02.516Z,103336.56
2023-02-12T20:27:30.293Z,103324.81
2023-02-12T20:29:58.109Z,103326.66
2023-02-12T20:32:27.317Z,103329.31
2023-02-12T20:34:55.210Z,103333.06
2023-02-12T20:37:23.083Z,103334.03
2023-02-12T20:39:53.828Z,103329.53
2023-02-12T20:42:21.603Z,103335.84
2023-02-12T20:44:49.605Z,103337.81
2023-02-12T20:47:17.572Z,103334.13
2023-02-12T20:49:53.324Z,103334.13
2023-02-12T20:52:22.016Z,103339.63
2023-02-12T20:54:50.137Z,103327.81
2023-02-12T20:58:28.840Z,103329.59
2023-02-12T21:02:14.270Z,103335.31
2023-02-12T21:05:44.351Z,103327.03
2023-02-12T21:08:21.713Z,103336.19
2023-02-12T21:11:04.943Z,103341.66
2023-02-12T21:13:40.733Z,103338.94
2023-02-12T21:16:20.959Z,103337.09
2023-02-12T21:19:02.665Z,103329.94
2023-02-12T21:21:32.279Z,103336.19
2023-02-12T21:24:02.997Z,103336.19
2023-02-12T21:26:32.795Z,103336.19
2023-02-12T21:29:02.506Z,103334.44
2023-02-12T21:31:32.128Z,103330.81
2023-02-12T21:34:03.706Z,103332.66
2023-02-12T21:36:34.562Z,103338.19
2023-02-12T21:39:06.513Z,103333.63
2023-02-12T21:41:36.972Z,103339.97
2023-02-12T21:44:07.855Z,103339.91
2023-02-12T21:46:36.991Z,103352.69
2023-02-12T21:49:06.232Z,103344.50
2023-02-12T21:51:39.083Z,103351.72
2023-02-12T21:54:10.318Z,103350.84
2023-02-12T21:56:38.543Z,103347.28
2023-02-12T21:59:08.652Z,103342.66
2023-02-12T22:01:40.126Z,103349.97
2023-02-12T22:04:09.152Z,103342.72
2023-02-12T22:06:38.815Z,103344.50
2023-02-12T22:09:10.531Z,103347.13
2023-02-12T22:11:39.939Z,103338.13
2023-02-12T22:14:09.532Z,103329.94
2023-02-12T22:16:38.336Z,103339.03
2023-02-12T22:19:06.656Z,103328.16
2023-02-12T22:21:36.648Z,103330.88
2023-02-12T22:24:06.961Z,103331.78
2023-02-12T22:26:36.850Z,103329.94
2023-02-12T22:29:08.082Z,103321.72
2023-02-12T22:31:37.625Z,103331.81
2023-02-12T22:34:08.414Z,103334.50
2023-02-12T22:36:38.482Z,103336.38
2023-02-12T22:39:07.623Z,103336.38
2023-02-12T22:41:41.950Z,103331.81
2023-02-12T22:44:13.376Z,103330.97
2023-02-12T22:46:42.627Z,103342.91
2023-02-12T22:49:10.864Z,103339.31
2023-02-12T22:51:39.690Z,103339.38
2023-02-12T22:54:08.241Z,103338.44
2023-02-12T22:56:37.537Z,103335.75
2023-02-12T22:59:05.361Z,103345.81
2023-02-12T23:01:35.801Z,103342.19
2023-02-12T23:04:04.508Z,103344.91
2023-02-12T23:06:33.434Z,103350.44
2023-02-12T23:09:05.212Z,103346.75
2023-02-12T23:11:34.601Z,103343.25
2023-02-12T23:14:04.474Z,103347.81
2023-02-12T23:16:33.009Z,103350.56
2023-02-12T23:19:02.889Z,103350.50
2023-02-12T23:21:32.842Z,103353.22
2023-02-12T23:24:00.878Z,103357.00
2023-02-12T23:26:29.913Z,103344.19
2023-02-12T23:28:58.552Z,103350.56
2023-02-12T23:31:28.322Z,103355.91
2023-02-12T23:33:56.213Z,103350.50
2023-02-12T23:36:24.070Z,103354.13
2023-02-12T23:38:51.877Z,103349.53
2023-02-12T23:41:19.676Z,103343.19
2023-02-12T23:43:47.485Z,103344.97
2023-02-12T23:46:15.369Z,103338.56
2023-02-12T23:48:45.942Z,103342.19
2023-02-12T23:51:14.217Z,103333.16
2023-02-12T23:53:42.288Z,103334.09
2023-02-12T23:56:10.216Z,103329.59
2023-02-12T23:58:38.518Z,103328.69
